createdAt,value
2019-06-10T00:02:50.679Z,99772.27
2019-06-10T00:05:55.907Z,99761.95
2019-06-10T00:09:04.591Z,99757.48
2019-06-10T00:12:12.727Z,99751.97
2019-06-10T00:15:18.357Z,99744.00
2019-06-10T00:18:38.759Z,99751.36
2019-06-10T00:21:32.428Z,99744.64
2019-06-10T00:24:40.747Z,99740.27
2019-06-10T00:27:45.540Z,99736.80
2019-06-10T00:30:51.689Z,99746.59
2019-06-10T00:33:58.637Z,99741.60
2019-06-10T00:37:06.284Z,99736.84
2019-06-10T00:40:14.100Z,99734.47
2019-06-10T00:43:21.388Z,99724.13
2019-06-10T00:46:27.321Z,99714.84
2019-06-10T00:49:33.081Z,99724.23
2019-06-10T00:52:41.460Z,99720.28
2019-06-10T00:55:46.167Z,99711.66
2019-06-10T00:58:51.850Z,99713.41
2019-06-10T01:01:57.529Z,99709.14
2019-06-10T01:05:03.220Z,99704.79
2019-06-10T01:08:08.862Z,99698.13
2019-06-10T01:11:21.567Z,99699.56
2019-06-10T01:14:21.940Z,99703.35
2019-06-10T01:17:27.642Z,99706.84
2019-06-10T01:20:33.361Z,99713.56
2019-06-10T01:23:39.009Z,99710.03
2019-06-10T01:26:46.408Z,99718.73
2019-06-10T01:29:52.141Z,99714.80
2019-06-10T01:32:57.827Z,99711.56
2019-06-10T01:36:03.536Z,99722.33
2019-06-10T01:39:11.594Z,99708.12
2019-06-10T01:42:17.202Z,99707.36
2019-06-10T01:45:23.099Z,99705.63
2019-06-10T01:48:41.460Z,99704.69
2019-06-10T01:51:36.186Z,99693.25
2019-06-10T01:54:42.140Z,99689.20
2019-06-10T01:57:48.888Z,99685.72
2019-06-10T02:01:02.126Z,99696.03
2019-06-10T02:04:11.583Z,99697.92
2019-06-10T02:07:18.476Z,99704.69
2019-06-10T02:10:23.583Z,99710.43
2019-06-10T02:13:33.242Z,99702.13
2019-06-10T02:16:41.308Z,99704.58
2019-06-10T02:19:46.531Z,99710.63
2019-06-10T02:22:52.176Z,99700.33
2019-06-10T02:25:57.861Z,99700.17
2019-06-10T02:29:03.586Z,99693.42
2019-06-10T02:32:12.440Z,99684.34
2019-06-10T02:35:27.226Z,99691.09
2019-06-10T02:38:33.204Z,99689.86
2019-06-10T02:41:36.063Z,99688.16
2019-06-10T02:44:40.378Z,99687.20
2019-06-10T02:47:46.072Z,99684.64
2019-06-10T02:51:06.185Z,99675.36
2019-06-10T02:54:15.584Z,99680.44
2019-06-10T02:57:24.627Z,99675.72
2019-06-10T03:00:39.558Z,99681.31
2019-06-10T03:03:42.929Z,99692.16
2019-06-10T03:06:44.817Z,99682.53
2019-06-10T03:09:49.452Z,99681.16
2019-06-10T03:12:55.149Z,99676.02
2019-06-10T03:16:16.218Z,99684.28
2019-06-10T03:19:39.766Z,99680.17
2019-06-10T03:22:29.254Z,99681.16
2019-06-10T03:25:34.996Z,99681.63
2019-06-10T03:28:42.790Z,99677.35
2019-06-10T03:31:48.739Z,99672.03
2019-06-10T03:34:55.128Z,99676.89
2019-06-10T03:38:02.993Z,99673.72
2019-06-10T03:41:08.401Z,99672.14
2019-06-10T03:44:14.071Z,99674.19
2019-06-10T03:47:19.726Z,99665.87
2019-06-10T03:50:27.121Z,99668.44
2019-06-10T03:53:33.604Z,99666.86
2019-06-10T03:56:39.638Z,99669.52
2019-06-10T03:59:45.414Z,99669.93
2019-06-10T04:02:53.118Z,99667.63
2019-06-10T04:05:58.496Z,99664.55
2019-06-10T04:09:05.425Z,99667.66
2019-06-10T04:12:12.570Z,99675.80
2019-06-10T04:15:19.691Z,99670.08
2019-06-10T04:18:27.870Z,99676.44
2019-06-10T04:21:33.161Z,99688.01
2019-06-10T04:24:38.809Z,99691.03
2019-06-10T04:27:44.618Z,99695.30
2019-06-10T04:30:50.337Z,99697.29
2019-06-10T04:33:56.006Z,99698.78
2019-06-10T04:37:03.135Z,99696.42
2019-06-10T04:40:09.732Z,99703.34
2019-06-10T04:43:15.387Z,99702.11
2019-06-10T04:46:23.662Z,99708.78
2019-06-10T04:49:29.779Z,99713.05
2019-06-10T04:52:36.033Z,99710.22
2019-06-10T04:55:43.139Z,99703.14
2019-06-10T04:58:49.074Z,99704.13
2019-06-10T05:01:54.778Z,99710.73
2019-06-10T05:05:02.964Z,99703.59
2019-06-10T05:08:07.817Z,99700.88
2019-06-10T05:11:13.516Z,99704.11
2019-06-10T05:14:19.406Z,99698.33
2019-06-10T05:17:27.570Z,99697.28
2019-06-10T05:20:51.084Z,99695.06
2019-06-10T05:23:42.757Z,99704.71
2019-06-10T05:26:48.004Z,99691.21
2019-06-10T05:29:53.744Z,99695.95
2019-06-10T05:32:59.410Z,99705.04
2019-06-10T05:36:06.593Z,99710.20
2019-06-10T05:39:12.314Z,99702.99
2019-06-10T05:42:18.015Z,99703.20
2019-06-10T05:45:25.839Z,99711.33
2019-06-10T05:48:33.053Z,99714.25
2019-06-10T05:51:42.313Z,99709.69
2019-06-10T05:54:48.314Z,99714.13
2019-06-10T05:57:53.980Z,99713.36
2019-06-10T06:00:59.670Z,99718.36
2019-06-10T06:04:05.438Z,99713.06
2019-06-10T06:07:12.893Z,99720.86
2019-06-10T06:10:18.774Z,99720.43
2019-06-10T06:13:25.367Z,99714.40
2019-06-10T06:16:33.110Z,99711.26
2019-06-10T06:19:38.950Z,99713.44
2019-06-10T06:22:44.559Z,99715.08
2019-06-10T06:25:52.964Z,99706.52
2019-06-10T06:28:57.754Z,99710.25
2019-06-10T06:32:05.516Z,99706.17
2019-06-10T06:35:12.788Z,99701.27
2019-06-10T06:38:18.448Z,99704.08
2019-06-10T06:41:24.217Z,99705.44
2019-06-10T06:44:32.464Z,99700.32
2019-06-10T06:47:37.756Z,99699.67
2019-06-10T06:51:00.252Z,99696.08
2019-06-10T06:53:56.241Z,99699.77
2019-06-10T06:57:03.238Z,99691.81
2019-06-10T07:00:34.243Z,99690.77
2019-06-10T07:03:15.601Z,99696.06
2019-06-10T07:06:23.046Z,99689.88
2019-06-10T07:09:33.079Z,99683.53
2019-06-10T07:12:39.487Z,99675.25
2019-06-10T07:15:47.639Z,99672.73
2019-06-10T07:18:54.136Z,99672.50
2019-06-10T07:22:11.419Z,99675.27
2019-06-10T07:25:08.022Z,99673.87
2019-06-10T07:28:14.752Z,99667.69
2019-06-10T07:31:26.783Z,99668.63
2019-06-10T07:34:27.873Z,99668.70
2019-06-10T07:37:34.984Z,99667.51
2019-06-10T07:40:45.277Z,99670.27
2019-06-10T07:43:49.775Z,99667.16
2019-06-10T07:46:55.666Z,99667.51
2019-06-10T07:50:03.010Z,99666.62
2019-06-10T07:53:09.926Z,99664.53
2019-06-10T07:56:15.559Z,99659.84
2019-06-10T07:59:23.308Z,99662.66
2019-06-10T08:02:28.600Z,99664.09
2019-06-10T08:05:35.631Z,99663.48
2019-06-10T08:08:44.833Z,99660.14
2019-06-10T08:11:49.198Z,99654.96
2019-06-10T08:14:54.876Z,99654.00
2019-06-10T08:18:04.123Z,99653.66
2019-06-10T08:21:08.024Z,99654.94
2019-06-10T08:24:13.672Z,99652.48
2019-06-10T08:27:19.446Z,99647.70
2019-06-10T08:30:27.558Z,99650.53
2019-06-10T08:33:33.222Z,99655.73
2019-06-10T08:36:50.423Z,99656.19
2019-06-10T08:39:53.869Z,99659.84
2019-06-10T08:43:00.620Z,99659.95
2019-06-10T08:46:06.612Z,99656.97
2019-06-10T08:49:12.722Z,99658.70
2019-06-10T08:52:19.560Z,99659.09
2019-06-10T08:55:25.364Z,99650.22
2019-06-10T08:58:33.057Z,99652.56
2019-06-10T09:01:39.478Z,99652.25
2019-06-10T09:04:48.746Z,99647.88
2019-06-10T09:07:54.487Z,99645.20
2019-06-10T09:11:02.392Z,99638.73
2019-06-10T09:14:07.892Z,99637.39
2019-06-10T09:17:13.570Z,99644.84
2019-06-10T09:20:22.792Z,99633.67
2019-06-10T09:23:27.394Z,99635.01
2019-06-10T09:26:33.891Z,99627.16
2019-06-10T09:29:41.720Z,99619.34
2019-06-10T09:32:51.488Z,99620.98
2019-06-10T09:35:55.290Z,99617.34
2019-06-10T09:39:03.759Z,99616.80
2019-06-10T09:42:08.851Z,99611.30
2019-06-10T09:45:15.480Z,99608.42
2019-06-10T09:48:23.118Z,99608.67
2019-06-10T09:51:32.236Z,99606.25
2019-06-10T09:54:37.437Z,99603.92
2019-06-10T09:57:45.985Z,99596.78
2019-06-10T10:00:57.561Z,99602.37
2019-06-10T10:04:00.775Z,99599.33
2019-06-10T10:07:06.529Z,99602.95
2019-06-10T10:10:13.449Z,99585.77
2019-06-10T10:13:19.080Z,99581.71
2019-06-10T10:16:24.770Z,99577.64
2019-06-10T10:19:30.548Z,99572.78
2019-06-10T10:22:36.243Z,99563.19
2019-06-10T10:25:44.895Z,99553.58
2019-06-10T10:28:51.835Z,99554.71
2019-06-10T10:31:56.794Z,99555.43
2019-06-10T10:35:03.942Z,99549.34
2019-06-10T10:38:14.343Z,99547.67
2019-06-10T10:41:27.561Z,99535.25
2019-06-10T10:44:33.274Z,99536.34
2019-06-10T10:47:39.034Z,99527.28
2019-06-10T10:50:45.640Z,99523.76
2019-06-10T10:54:15.582Z,99524.84
2019-06-10T10:56:59.426Z,99520.95
2019-06-10T11:00:06.798Z,99515.79
2019-06-10T11:03:13.433Z,99507.55
2019-06-10T11:06:19.454Z,99499.50
2019-06-10T11:09:26.455Z,99491.47
2019-06-10T11:12:34.098Z,99495.39
2019-06-10T11:15:39.987Z,99484.67
2019-06-10T11:18:45.687Z,99480.31
2019-06-10T11:21:53.635Z,99471.02
2019-06-10T11:24:59.607Z,99472.45
2019-06-10T11:28:06.470Z,99466.87
2019-06-10T11:31:13.782Z,99462.47
2019-06-10T11:34:19.988Z,99452.37
2019-06-10T11:37:25.701Z,99447.77
2019-06-10T11:40:33.932Z,99451.91
2019-06-10T11:43:39.455Z,99450.67
2019-06-10T11:46:46.644Z,99440.06
2019-06-10T11:49:54.975Z,99428.81
2019-06-10T11:53:01.375Z,99438.53
2019-06-10T11:56:07.516Z,99434.88
2019-06-10T11:59:13.548Z,99432.28
2019-06-10T12:02:19.511Z,99427.86
2019-06-10T12:05:25.803Z,99423.90
2019-06-10T12:08:34.235Z,99426.57
2019-06-10T12:11:42.897Z,99427.33
2019-06-10T12:14:47.323Z,99423.55
2019-06-10T12:18:01.804Z,99421.52
2019-06-10T12:21:03.577Z,99441.31
2019-06-10T12:24:07.859Z,99444.68
2019-06-10T12:27:13.584Z,99448.05
2019-06-10T12:30:22.236Z,99442.63
2019-06-10T12:33:27.446Z,99453.50
2019-06-10T12:36:33.126Z,99458.78
2019-06-10T12:39:39.075Z,99457.77
2019-06-10T12:42:45.929Z,99454.02
2019-06-10T12:45:53.014Z,99445.60
2019-06-10T12:49:02.084Z,99445.10
2019-06-10T12:52:07.580Z,99447.61
2019-06-10T12:55:13.975Z,99453.95
2019-06-10T12:58:19.653Z,99458.14
2019-06-10T13:01:26.695Z,99451.34
2019-06-10T13:04:33.765Z,99442.09
2019-06-10T13:07:39.716Z,99437.37
2019-06-10T13:10:46.745Z,99424.93
2019-06-10T13:13:53.041Z,99410.20
2019-06-10T13:17:00.004Z,99409.34
2019-06-10T13:20:08.237Z,99414.73
2019-06-10T13:23:23.303Z,99411.01
2019-06-10T13:26:23.444Z,99410.88
2019-06-10T13:29:29.252Z,99410.25
2019-06-10T13:32:35.088Z,99409.66
2019-06-10T13:35:41.754Z,99407.36
2019-06-10T13:38:48.275Z,99403.42
2019-06-10T13:41:54.229Z,99392.23
2019-06-10T13:45:00.007Z,99387.38
2019-06-10T13:48:08.402Z,99385.86
2019-06-10T13:51:15.750Z,99379.48
2019-06-10T13:54:22.573Z,99387.56
2019-06-10T13:57:32.226Z,99394.82
2019-06-10T14:00:42.694Z,99386.96
2019-06-10T14:03:45.417Z,99380.24
2019-06-10T14:06:56.860Z,99379.46
2019-06-10T14:09:59.062Z,99388.02
2019-06-10T14:13:08.772Z,99385.27
2019-06-10T14:16:15.182Z,99381.58
2019-06-10T14:19:23.062Z,99375.84
2019-06-10T14:22:28.301Z,99367.56
2019-06-10T14:25:34.012Z,99353.63
2019-06-10T14:28:41.789Z,99354.70
2019-06-10T14:31:48.035Z,99345.45
2019-06-10T14:34:54.554Z,99331.76
2019-06-10T14:38:00.210Z,99314.22
2019-06-10T14:41:06.574Z,99302.47
2019-06-10T14:44:16.064Z,99305.18
2019-06-10T14:47:19.842Z,99293.74
2019-06-10T14:50:25.637Z,99300.45
2019-06-10T14:53:33.736Z,99296.97
2019-06-10T14:56:50.772Z,99292.87
2019-06-10T14:59:46.067Z,99311.75
2019-06-10T15:02:53.781Z,99310.65
2019-06-10T15:05:59.188Z,99316.30
2019-06-10T15:09:07.432Z,99310.94
2019-06-10T15:12:15.556Z,99303.41
2019-06-10T15:15:23.377Z,99286.80
2019-06-10T15:18:28.334Z,99288.93
2019-06-10T15:21:33.973Z,99291.63
2019-06-10T15:24:39.663Z,99292.70
2019-06-10T15:27:45.386Z,99296.73
2019-06-10T15:30:52.454Z,99297.50
2019-06-10T15:33:58.476Z,99302.27
2019-06-10T15:37:04.256Z,99305.48
2019-06-10T15:40:14.023Z,99300.92
2019-06-10T15:43:18.130Z,99292.34
2019-06-10T15:46:23.938Z,99282.98
2019-06-10T15:49:32.600Z,99286.43
2019-06-10T15:52:38.822Z,99283.80
2019-06-10T15:56:09.116Z,99292.14
2019-06-10T15:58:52.214Z,99294.28
2019-06-10T16:01:58.531Z,99295.91
2019-06-10T16:05:04.450Z,99300.47
2019-06-10T16:08:12.532Z,99307.18
2019-06-10T16:11:18.898Z,99301.84
2019-06-10T16:14:25.443Z,99302.91
2019-06-10T16:17:33.214Z,99303.16
2019-06-10T16:20:38.674Z,99298.84
2019-06-10T16:23:44.347Z,99288.34
2019-06-10T16:26:52.436Z,99290.76
2019-06-10T16:29:57.397Z,99288.89
2019-06-10T16:33:03.033Z,99283.55
2019-06-10T16:36:08.755Z,99285.64
2019-06-10T16:39:14.923Z,99282.46
2019-06-10T16:42:22.977Z,99284.62
2019-06-10T16:45:30.928Z,99285.48
2019-06-10T16:48:35.440Z,99289.23
2019-06-10T16:51:42.917Z,99298.63
2019-06-10T16:54:48.462Z,99295.94
2019-06-10T16:57:59.206Z,99292.98
2019-06-10T17:01:03.485Z,99284.06
2019-06-10T17:04:08.941Z,99280.27
2019-06-10T17:07:14.602Z,99276.76
2019-06-10T17:10:21.764Z,99281.01
2019-06-10T17:13:30.317Z,99274.77
2019-06-10T17:16:36.097Z,99269.87
2019-06-10T17:19:41.791Z,99280.03
2019-06-10T17:22:47.502Z,99280.55
2019-06-10T17:25:55.802Z,99275.05
2019-06-10T17:29:02.816Z,99276.86
2019-06-10T17:32:08.612Z,99268.52
2019-06-10T17:35:20.080Z,99264.11
2019-06-10T17:38:26.891Z,99264.05
2019-06-10T17:41:35.260Z,99269.11
2019-06-10T17:44:42.724Z,99276.91
2019-06-10T17:47:48.640Z,99282.25
2019-06-10T17:50:54.462Z,99292.03
2019-06-10T17:54:02.475Z,99287.70
2019-06-10T17:57:08.247Z,99292.59
2019-06-10T18:00:15.103Z,99292.97
2019-06-10T18:03:23.161Z,99293.81
2019-06-10T18:06:29.586Z,99289.38
2019-06-10T18:09:37.061Z,99303.16
2019-06-10T18:12:42.992Z,99304.44
2019-06-10T18:15:48.697Z,99308.35
2019-06-10T18:18:54.420Z,99302.79
2019-06-10T18:22:00.220Z,99308.86
2019-06-10T18:25:06.172Z,99312.06
2019-06-10T18:28:12.200Z,99315.04
2019-06-10T18:31:18.757Z,99303.53
2019-06-10T18:34:25.686Z,99310.64
2019-06-10T18:37:34.462Z,99308.02
2019-06-10T18:40:39.871Z,99313.45
2019-06-10T18:43:46.295Z,99313.32
2019-06-10T18:46:51.975Z,99317.46
2019-06-10T18:49:57.654Z,99319.39
2019-06-10T18:53:04.335Z,99320.01
2019-06-10T18:56:12.668Z,99316.59
2019-06-10T18:59:21.257Z,99313.25
2019-06-10T19:02:26.434Z,99324.64
2019-06-10T19:05:33.528Z,99320.98
2019-06-10T19:08:41.379Z,99316.54
2019-06-10T19:11:47.744Z,99319.94
2019-06-10T19:14:55.354Z,99323.97
2019-06-10T19:18:03.175Z,99328.70
2019-06-10T19:21:08.926Z,99324.21
2019-06-10T19:24:16.866Z,99327.45
2019-06-10T19:27:23.704Z,99326.20
2019-06-10T19:30:31.864Z,99323.91
2019-06-10T19:33:39.269Z,99326.91
2019-06-10T19:36:45.846Z,99324.42
2019-06-10T19:39:54.090Z,99337.12
2019-06-10T19:42:59.098Z,99342.73
2019-06-10T19:46:07.240Z,99340.78
2019-06-10T19:49:13.452Z,99341.58
2019-06-10T19:52:23.329Z,99338.07
2019-06-10T19:55:27.982Z,99342.48
2019-06-10T19:58:34.203Z,99345.16
2019-06-10T20:01:41.892Z,99342.08
2019-06-10T20:04:47.273Z,99340.29
2019-06-10T20:07:53.455Z,99340.80
2019-06-10T20:10:59.713Z,99348.05
2019-06-10T20:14:07.365Z,99345.91
2019-06-10T20:17:13.536Z,99342.70
2019-06-10T20:20:22.312Z,99351.25
2019-06-10T20:23:27.297Z,99343.83
2019-06-10T20:26:33.164Z,99346.66
2019-06-10T20:29:40.487Z,99343.23
2019-06-10T20:32:51.852Z,99345.38
2019-06-10T20:35:56.191Z,99334.76
2019-06-10T20:39:01.874Z,99339.49
2019-06-10T20:42:09.086Z,99348.55
2019-06-10T20:45:15.009Z,99356.30
2019-06-10T20:48:22.474Z,99348.31
2019-06-10T20:51:28.078Z,99337.72
2019-06-10T20:54:33.746Z,99345.04
2019-06-10T20:57:52.114Z,99339.64
2019-06-10T21:00:51.865Z,99334.23
2019-06-10T21:03:54.443Z,99332.72
2019-06-10T21:07:02.490Z,99332.12
2019-06-10T21:10:09.881Z,99327.03
2019-06-10T21:13:15.724Z,99328.69
2019-06-10T21:16:23.008Z,99332.12
2019-06-10T21:19:28.726Z,99329.67
2019-06-10T21:22:34.447Z,99317.19
2019-06-10T21:25:41.205Z,99325.75
2019-06-10T21:28:49.229Z,99319.45
2019-06-10T21:31:55.211Z,99330.61
2019-06-10T21:35:03.105Z,99333.19
2019-06-10T21:38:08.437Z,99328.28
2019-06-10T21:41:14.102Z,99328.95
2019-06-10T21:44:19.794Z,99319.81
2019-06-10T21:47:25.491Z,99330.17
2019-06-10T21:50:33.433Z,99329.58
2019-06-10T21:53:38.642Z,99328.87
2019-06-10T21:56:45.643Z,99325.35
2019-06-10T21:59:54.984Z,99327.27
2019-06-10T22:02:59.103Z,99319.13
2019-06-10T22:06:04.870Z,99312.39
2019-06-10T22:09:12.460Z,99307.31
2019-06-10T22:12:18.520Z,99296.58
2019-06-10T22:15:24.328Z,99295.77
2019-06-10T22:18:32.208Z,99296.54
2019-06-10T22:21:38.118Z,99298.99
2019-06-10T22:24:44.694Z,99294.88
2019-06-10T22:27:50.353Z,99284.58
2019-06-10T22:31:15.131Z,99276.73
2019-06-10T22:34:04.532Z,99273.25
2019-06-10T22:37:12.373Z,99274.55
2019-06-10T22:40:17.973Z,99278.79
2019-06-10T22:43:23.765Z,99274.29
2019-06-10T22:46:29.431Z,99268.63
2019-06-10T22:49:35.122Z,99260.41
2019-06-10T22:52:42.582Z,99259.62
2019-06-10T22:55:50.902Z,99262.25
2019-06-10T22:58:57.465Z,99257.44
2019-06-10T23:02:03.210Z,99248.03
2019-06-10T23:05:09.363Z,99240.33
2019-06-10T23:08:15.043Z,99237.16
2019-06-10T23:11:20.729Z,99230.56
2019-06-10T23:14:26.388Z,99220.91
2019-06-10T23:17:32.099Z,99224.05
2019-06-10T23:20:37.801Z,99220.46
2019-06-10T23:23:43.487Z,99220.38
2019-06-10T23:26:49.725Z,99217.67
2019-06-10T23:29:56.008Z,99217.13
2019-06-10T23:33:02.978Z,99209.64
2019-06-10T23:36:08.666Z,99205.14
2019-06-10T23:39:14.356Z,99202.44
2019-06-10T23:42:20.016Z,99205.43
2019-06-10T23:45:25.726Z,99214.05
2019-06-10T23:48:33.004Z,99215.72
2019-06-10T23:51:38.763Z,99204.20
2019-06-10T23:54:44.457Z,99205.06
2019-06-10T23:57:50.111Z,99203.54
